Time;durP1;ratioP1;P1;durP2;ratioP2;P2;SDS_P1;SDS_P2;PMS_P1;PMS_P2;Temp;Humidity;BMP_temperature;BMP_pressure;BME280_temperature;BME280_humidity;BME280_pressure;Samples;Min_cycle;Max_cycle;Signal;HPM_P1;HPM_P2
2022/08/02 00:01:39;;;;;;;0.08;0.08;;;15.70;99.90;;;;;;5040683;28;20045;-67
2022/08/02 00:04:04;;;;;;;0.10;0.10;;;15.70;99.90;;;;;;5038255;28;20044;-67
2022/08/02 00:06:31;;;;;;;0.60;0.60;;;15.70;99.90;;;;;;5048411;28;20036;-66
2022/08/02 00:08:57;;;;;;;0.00;0.00;;;15.60;99.90;;;;;;5048399;28;20080;-67
2022/08/02 00:11:22;;;;;;;0.57;0.47;;;15.50;99.90;;;;;;5041276;28;20064;-67
2022/08/02 00:13:48;;;;;;;0.00;0.00;;;15.50;99.90;;;;;;5043317;28;20048;-66
2022/08/02 00:16:13;;;;;;;0.10;0.10;;;15.50;99.90;;;;;;5049400;28;20048;-67
2022/08/02 00:18:39;;;;;;;0.00;0.00;;;15.60;99.90;;;;;;5041543;28;20091;-66
2022/08/02 00:21:05;;;;;;;0.17;0.17;;;15.50;99.90;;;;;;5045078;28;20041;-66
2022/08/02 00:23:31;;;;;;;0.05;0.05;;;15.60;99.90;;;;;;5060809;28;20059;-67
2022/08/02 00:25:57;;;;;;;0.10;0.10;;;15.50;99.90;;;;;;5031742;28;20097;-66
2022/08/02 00:28:24;;;;;;;0.10;0.10;;;15.60;99.90;;;;;;5044077;28;20508;-67
2022/08/02 00:30:49;;;;;;;0.20;0.20;;;15.50;99.90;;;;;;5041392;28;20033;-67
2022/08/02 00:33:15;;;;;;;0.05;0.05;;;15.40;99.90;;;;;;5039629;28;20562;-66
2022/08/02 00:35:40;;;;;;;0.10;0.10;;;15.40;99.90;;;;;;5045113;28;20493;-67
2022/08/02 00:38:06;;;;;;;0.00;0.00;;;15.40;99.90;;;;;;5034773;28;20539;-66
2022/08/02 00:40:31;;;;;;;0.32;0.32;;;15.40;99.90;;;;;;5038891;28;20048;-67
2022/08/02 00:43:03;;;;;;;0.47;0.47;;;15.50;99.90;;;;;;5048338;28;20157;-67
2022/08/02 00:45:30;;;;;;;0.10;0.10;;;15.40;99.90;;;;;;5031819;28;20034;-67
2022/08/02 00:47:56;;;;;;;0.00;0.00;;;15.40;99.90;;;;;;5035823;28;20715;-66
2022/08/02 00:50:21;;;;;;;0.10;0.10;;;15.30;99.90;;;;;;5047068;28;20115;-66
2022/08/02 00:52:47;;;;;;;0.10;0.10;;;15.30;99.90;;;;;;5037390;28;20476;-66
2022/08/02 00:55:13;;;;;;;0.10;0.10;;;15.30;99.90;;;;;;5038940;28;20047;-67
2022/08/02 00:57:38;;;;;;;0.03;0.03;;;15.20;99.90;;;;;;5033579;28;20049;-66
2022/08/02 01:00:05;;;;;;;0.20;0.17;;;15.30;99.90;;;;;;5033317;28;20045;-66
2022/08/02 01:02:31;;;;;;;0.08;0.08;;;15.30;99.90;;;;;;5048563;28;20060;-67
2022/08/02 01:04:56;;;;;;;0.10;0.10;;;15.30;99.90;;;;;;5047735;28;20496;-66
2022/08/02 01:07:22;;;;;;;0.10;0.10;;;15.30;99.90;;;;;;5037710;28;20128;-66
2022/08/02 01:09:47;;;;;;;0.13;0.13;;;15.30;99.90;;;;;;5030365;28;20041;-66
2022/08/02 01:12:13;;;;;;;0.43;0.30;;;15.30;99.90;;;;;;5047635;28;20041;-67
2022/08/02 01:14:41;;;;;;;0.30;0.30;;;15.30;99.90;;;;;;5045884;28;20785;-66
2022/08/02 01:17:13;;;;;;;0.00;0.00;;;15.20;99.90;;;;;;5050297;28;20049;-67
2022/08/02 01:20:07;;;;;;;0.20;0.20;;;15.20;99.90;;;;;;5039937;28;20059;-66
2022/08/02 01:23:00;;;;;;;0.45;0.45;;;15.20;99.90;;;;;;5031956;28;20056;-66
2022/08/02 01:25:52;;;;;;;0.00;0.00;;;15.20;99.90;;;;;;5024581;28;20130;-66
2022/08/02 01:28:39;;;;;;;0.00;0.00;;;15.20;99.90;;;;;;5035355;28;20064;-66
2022/08/02 01:31:43;;;;;;;0.63;0.43;;;15.10;99.90;;;;;;5033861;28;20052;-66
2022/08/02 01:34:29;;;;;;;;;;;15.10;99.90;;;;;;5039707;28;20136;-66
2022/08/02 01:37:01;;;;;;;0.10;0.10;;;15.10;99.90;;;;;;5031893;28;20354;-66
2022/08/02 01:39:29;;;;;;;0.90;0.90;;;15.00;99.90;;;;;;5047286;28;20500;-66
2022/08/02 01:41:58;;;;;;;0.10;0.10;;;15.00;99.90;;;;;;5046686;28;20088;-66
2022/08/02 01:44:26;;;;;;;0.68;0.68;;;15.00;99.90;;;;;;5033203;28;20053;-66
2022/08/02 01:46:57;;;;;;;0.10;0.10;;;15.00;99.90;;;;;;5035607;28;20047;-66
2022/08/02 01:49:24;;;;;;;0.10;0.10;;;14.90;99.90;;;;;;5046007;28;20041;-66
2022/08/02 01:54:38;;;;;;;0.05;0.05;;;14.90;99.90;;;;;;5041688;28;20056;-66
2022/08/02 01:57:06;;;;;;;0.10;0.10;;;14.80;99.90;;;;;;5047463;28;20094;-67
2022/08/02 01:59:32;;;;;;;0.17;0.17;;;14.90;99.90;;;;;;5037805;28;20485;-66
2022/08/02 02:02:00;;;;;;;0.22;0.22;;;14.80;99.90;;;;;;5040390;28;20041;-66
2022/08/02 02:04:29;;;;;;;0.10;0.10;;;14.80;99.90;;;;;;5047248;28;20053;-67
2022/08/02 02:06:56;;;;;;;0.00;0.00;;;14.80;99.90;;;;;;5038121;28;20103;-67
2022/08/02 02:09:30;;;;;;;9.95;0.52;;;14.80;99.90;;;;;;5041877;28;20057;-66
2022/08/02 02:11:58;;;;;;;0.10;0.10;;;14.80;99.90;;;;;;5045474;28;20055;-66
2022/08/02 02:14:26;;;;;;;0.40;0.40;;;14.70;99.90;;;;;;5037015;28;20040;-66
2022/08/02 02:16:54;;;;;;;0.00;0.00;;;14.70;99.90;;;;;;5041148;28;20045;-66
2022/08/02 02:19:20;;;;;;;0.10;0.10;;;14.80;99.90;;;;;;5030841;28;20045;-66
2022/08/02 02:21:46;;;;;;;1.27;1.05;;;14.80;99.90;;;;;;5046116;28;20052;-66
2022/08/02 02:24:12;;;;;;;0.00;0.00;;;14.70;99.90;;;;;;5049328;28;20057;-66
2022/08/02 02:26:40;;;;;;;0.10;0.10;;;14.60;99.90;;;;;;5039642;28;20029;-66
2022/08/02 02:29:08;;;;;;;0.80;0.80;;;14.60;99.90;;;;;;5045522;28;20080;-67
2022/08/02 02:31:39;;;;;;;0.10;0.10;;;14.70;99.90;;;;;;5041130;28;20045;-66
2022/08/02 02:34:10;;;;;;;0.40;0.40;;;14.70;99.90;;;;;;5047391;28;20044;-66
2022/08/02 02:36:44;;;;;;;0.10;0.10;;;14.60;99.90;;;;;;5042999;28;20072;-66
2022/08/02 02:39:11;;;;;;;0.28;0.28;;;14.60;99.90;;;;;;5061564;28;20080;-66
2022/08/02 02:41:38;;;;;;;0.38;0.38;;;14.60;99.90;;;;;;5042940;28;20041;-66
2022/08/02 02:44:06;;;;;;;0.85;0.82;;;14.60;99.90;;;;;;5049360;28;20053;-66
2022/08/02 02:46:33;;;;;;;0.10;0.10;;;14.60;99.90;;;;;;5047399;28;20052;-66
2022/08/02 02:49:00;;;;;;;0.52;0.32;;;14.60;99.90;;;;;;5051129;28;20053;-67
2022/08/02 02:51:26;;;;;;;0.00;0.00;;;14.60;99.90;;;;;;5049616;28;20556;-66
2022/08/02 02:53:53;;;;;;;0.10;0.10;;;14.50;99.90;;;;;;5046171;28;20190;-66
2022/08/02 02:56:19;;;;;;;0.15;0.15;;;14.60;99.90;;;;;;5040905;28;20080;-66
2022/08/02 02:58:46;;;;;;;4.75;1.10;;;14.60;99.90;;;;;;5050904;28;20053;-66
2022/08/02 03:01:29;;;;;;;0.30;0.30;;;14.60;99.90;;;;;;5041869;28;20060;-66
2022/08/02 03:03:58;;;;;;;0.10;0.10;;;14.70;99.90;;;;;;5046234;28;20064;-66
2022/08/02 03:06:24;;;;;;;0.50;0.45;;;14.60;99.90;;;;;;5044345;28;20804;-66
2022/08/02 03:08:50;;;;;;;0.10;0.10;;;14.60;99.90;;;;;;5047455;28;20056;-66
2022/08/02 03:11:16;;;;;;;0.20;0.17;;;14.60;99.90;;;;;;5040321;28;20054;-66
2022/08/02 03:13:42;;;;;;;1.15;1.15;;;14.60;99.90;;;;;;5036207;28;20339;-66
2022/08/02 03:16:10;;;;;;;0.20;0.20;;;14.50;99.90;;;;;;5050711;28;20122;-66
2022/08/02 03:18:38;;;;;;;0.08;0.08;;;14.60;99.90;;;;;;5046063;28;20067;-66
2022/08/02 03:21:06;;;;;;;0.10;0.10;;;14.60;99.90;;;;;;5047540;28;20491;-66
2022/08/02 03:23:32;;;;;;;0.08;0.08;;;14.60;99.90;;;;;;5045778;28;20045;-66
2022/08/02 03:25:58;;;;;;;0.17;0.17;;;14.60;99.90;;;;;;5044977;28;20516;-66
2022/08/02 03:28:24;;;;;;;0.10;0.10;;;14.50;99.90;;;;;;5049827;28;20041;-66
2022/08/02 03:30:50;;;;;;;0.00;0.00;;;14.60;99.90;;;;;;5050299;28;20388;-66
2022/08/02 03:33:17;;;;;;;0.30;0.30;;;14.60;99.90;;;;;;5040726;28;20045;-66
2022/08/02 03:35:46;;;;;;;0.20;0.20;;;14.60;99.90;;;;;;5045043;28;20044;-66
2022/08/02 03:38:12;;;;;;;0.40;0.22;;;14.50;99.90;;;;;;5049357;28;20061;-66
2022/08/02 03:40:40;;;;;;;0.10;0.10;;;14.50;99.90;;;;;;5045434;28;20080;-66
2022/08/02 03:43:07;;;;;;;0.10;0.10;;;14.50;99.90;;;;;;5040139;28;20094;-66
2022/08/02 03:45:33;;;;;;;0.10;0.10;;;14.40;99.90;;;;;;5044879;28;20504;-66
2022/08/02 03:47:59;;;;;;;0.20;0.20;;;14.50;99.90;;;;;;5032702;28;20045;-66
2022/08/02 03:50:26;;;;;;;0.20;0.20;;;14.50;99.90;;;;;;5043607;28;20079;-66
2022/08/02 03:52:52;;;;;;;0.25;0.25;;;14.60;99.90;;;;;;5032451;28;20140;-66
2022/08/02 03:55:17;;;;;;;0.05;0.05;;;14.50;99.90;;;;;;5046089;28;20048;-66
2022/08/02 03:57:43;;;;;;;0.10;0.10;;;14.50;99.90;;;;;;5048336;28;20044;-67
2022/08/02 04:00:12;;;;;;;0.20;0.20;;;14.50;99.90;;;;;;5042634;28;20049;-66
2022/08/02 04:02:38;;;;;;;0.10;0.10;;;14.50;99.90;;;;;;5038141;28;20111;-67
2022/08/02 04:05:04;;;;;;;0.20;0.20;;;14.50;99.90;;;;;;5037408;28;20404;-66
2022/08/02 04:07:30;;;;;;;0.45;0.40;;;14.50;99.90;;;;;;5047642;28;20044;-66
2022/08/02 04:09:55;;;;;;;1.45;0.90;;;14.50;99.90;;;;;;5044840;28;20037;-66
2022/08/02 04:12:21;;;;;;;0.10;0.10;;;14.50;99.90;;;;;;5033377;28;20456;-66
2022/08/02 04:14:47;;;;;;;0.10;0.10;;;14.50;99.90;;;;;;5035905;28;20081;-66
2022/08/02 04:17:14;;;;;;;3.42;0.30;;;14.50;99.90;;;;;;5038371;28;20865;-67
2022/08/02 04:19:46;;;;;;;0.38;0.38;;;14.50;99.90;;;;;;5047280;28;20049;-66
2022/08/02 04:22:18;;;;;;;0.10;0.10;;;14.60;99.90;;;;;;5033020;28;20045;-67
2022/08/02 04:24:48;;;;;;;0.00;0.00;;;14.60;99.90;;;;;;5040399;28;20041;-66
2022/08/02 04:27:14;;;;;;;0.10;0.10;;;14.70;99.90;;;;;;5034181;28;20282;-66
2022/08/02 04:29:41;;;;;;;0.00;0.00;;;14.80;99.90;;;;;;5036826;28;20622;-66
2022/08/02 04:32:07;;;;;;;0.30;0.30;;;14.80;99.90;;;;;;5042797;28;20487;-66
2022/08/02 04:34:33;;;;;;;0.00;0.00;;;14.70;99.90;;;;;;5038570;28;20047;-67
2022/08/02 04:36:59;;;;;;;0.10;0.10;;;14.80;99.90;;;;;;5039920;28;20052;-66
2022/08/02 04:39:25;;;;;;;4.18;1.40;;;14.80;99.90;;;;;;5033890;28;20327;-66
2022/08/02 04:41:51;;;;;;;0.10;0.10;;;14.80;99.90;;;;;;5035924;28;20494;-66
2022/08/02 04:44:17;;;;;;;0.20;0.20;;;14.90;99.90;;;;;;5040593;28;20047;-66
2022/08/02 04:46:44;;;;;;;2.53;0.80;;;14.80;99.90;;;;;;5047298;28;20508;-66
2022/08/02 04:49:09;;;;;;;0.03;0.03;;;14.90;99.90;;;;;;5043916;28;20050;-66
2022/08/02 04:51:36;;;;;;;0.55;0.50;;;15.00;99.90;;;;;;5035626;28;20605;-67
2022/08/02 04:54:06;;;;;;;0.08;0.08;;;15.00;99.90;;;;;;5040945;28;20124;-66
2022/08/02 04:56:32;;;;;;;0.30;0.30;;;15.00;99.90;;;;;;5045029;28;20060;-66
2022/08/02 04:58:57;;;;;;;0.68;0.68;;;15.00;99.90;;;;;;5033744;28;20050;-67
2022/08/02 05:01:23;;;;;;;0.10;0.10;;;15.00;99.90;;;;;;5041377;28;20049;-66
2022/08/02 05:03:49;;;;;;;0.08;0.08;;;15.10;99.90;;;;;;5040099;28;20049;-66
2022/08/02 05:06:15;;;;;;;0.40;0.30;;;15.00;99.90;;;;;;5031028;28;20123;-66
2022/08/02 05:08:41;;;;;;;0.10;0.10;;;15.10;99.90;;;;;;5029970;28;20045;-66
2022/08/02 05:11:06;;;;;;;0.10;0.10;;;15.10;99.90;;;;;;5047118;28;20209;-66
2022/08/02 05:13:32;;;;;;;0.10;0.10;;;15.10;99.90;;;;;;5047700;28;20056;-66
2022/08/02 05:16:02;;;;;;;0.00;0.00;;;15.10;99.90;;;;;;5046947;28;20033;-66
2022/08/02 05:18:27;;;;;;;0.10;0.10;;;15.10;99.90;;;;;;5036120;28;20045;-66
2022/08/02 05:20:53;;;;;;;0.10;0.10;;;15.20;99.90;;;;;;5039439;28;20377;-66
2022/08/02 05:23:19;;;;;;;0.75;0.75;;;15.40;99.90;;;;;;5029336;28;20056;-66
2022/08/02 05:25:45;;;;;;;0.28;0.28;;;15.40;99.90;;;;;;5046271;28;20484;-66
2022/08/02 05:28:10;;;;;;;0.17;0.17;;;15.50;99.90;;;;;;5043811;28;20045;-66
2022/08/02 05:30:36;;;;;;;0.10;0.10;;;15.50;99.90;;;;;;5035729;28;20044;-66
2022/08/02 05:33:03;;;;;;;0.10;0.10;;;15.60;99.90;;;;;;5047214;28;20488;-66
2022/08/02 05:35:28;;;;;;;0.10;0.10;;;15.70;99.90;;;;;;5037309;28;20045;-66
2022/08/02 05:37:54;;;;;;;0.10;0.10;;;15.80;99.90;;;;;;5044133;28;20090;-66
2022/08/02 05:40:19;;;;;;;0.05;0.05;;;15.90;99.90;;;;;;5046919;28;20037;-66
2022/08/02 05:42:45;;;;;;;0.00;0.00;;;16.00;99.90;;;;;;5034647;28;20042;-66
2022/08/02 05:45:11;;;;;;;1.13;0.73;;;16.10;99.90;;;;;;5042380;28;20064;-66
2022/08/02 05:47:37;;;;;;;0.00;0.00;;;16.20;99.90;;;;;;5042267;28;20041;-66
2022/08/02 05:50:04;;;;;;;0.03;0.03;;;16.20;99.90;;;;;;5031408;28;20091;-66
2022/08/02 05:52:50;;;;;;;0.00;0.00;;;16.30;99.90;;;;;;5044932;28;20040;-66
2022/08/02 05:55:20;;;;;;;0.15;0.15;;;16.40;99.90;;;;;;5040240;28;20052;-66
2022/08/02 05:58:06;;;;;;;0.08;0.08;;;16.40;99.90;;;;;;5042817;28;20049;-66
2022/08/02 06:00:35;;;;;;;0.00;0.00;;;16.50;99.90;;;;;;5030756;28;20049;-66
2022/08/02 06:03:07;;;;;;;0.08;0.08;;;16.50;99.90;;;;;;5031046;28;20077;-66
2022/08/02 06:05:38;;;;;;;0.13;0.13;;;16.60;99.90;;;;;;5028895;28;20053;-67
2022/08/02 06:08:08;;;;;;;0.00;0.00;;;16.60;99.90;;;;;;5042006;28;20057;-66
2022/08/02 06:10:36;;;;;;;0.00;0.00;;;16.70;99.90;;;;;;5054813;28;20064;-65
2022/08/02 06:13:11;;;;;;;0.00;0.00;;;16.70;99.90;;;;;;5041137;28;20496;-67
2022/08/02 06:15:38;;;;;;;0.00;0.00;;;16.70;99.90;;;;;;5036648;28;20060;-66
2022/08/02 06:18:06;;;;;;;0.10;0.10;;;16.80;99.90;;;;;;5032353;28;20072;-66
2022/08/02 06:20:36;;;;;;;0.00;0.00;;;16.80;99.90;;;;;;5034733;28;20552;-66
2022/08/02 06:23:02;;;;;;;0.10;0.10;;;16.70;99.90;;;;;;5038436;28;20049;-67
2022/08/02 06:25:29;;;;;;;0.65;0.40;;;16.80;99.90;;;;;;5038994;28;21723;-66
2022/08/02 06:27:55;;;;;;;0.05;0.05;;;16.80;99.90;;;;;;5030080;28;20049;-66
2022/08/02 06:30:21;;;;;;;0.10;0.10;;;16.80;99.90;;;;;;5044578;28;20098;-66
2022/08/02 06:32:50;;;;;;;0.10;0.10;;;16.80;99.90;;;;;;5048011;28;20136;-66
2022/08/02 06:35:16;;;;;;;0.10;0.10;;;16.90;99.90;;;;;;5044755;28;20053;-66
2022/08/02 06:37:52;;;;;;;0.00;0.00;;;17.00;99.90;;;;;;5033200;28;20080;-66
2022/08/02 06:40:43;;;;;;;0.40;0.40;;;17.00;99.90;;;;;;5036799;28;20042;-66
2022/08/02 06:43:18;;;;;;;0.10;0.10;;;17.20;99.90;;;;;;5032748;28;20106;-66
2022/08/02 06:45:44;;;;;;;0.05;0.05;;;17.20;99.90;;;;;;5044975;28;20123;-66
2022/08/02 06:48:10;;;;;;;0.10;0.10;;;17.30;99.90;;;;;;5034289;28;20119;-67
2022/08/02 06:50:40;;;;;;;0.80;0.55;;;17.30;99.90;;;;;;5047121;28;20037;-66
2022/08/02 06:53:06;;;;;;;0.10;0.10;;;17.30;99.90;;;;;;5044215;28;20060;-66
2022/08/02 06:55:32;;;;;;;0.00;0.00;;;17.30;99.90;;;;;;5030171;28;20489;-66
2022/08/02 06:57:59;;;;;;;0.03;0.03;;;17.30;99.90;;;;;;5037388;28;20044;-66
2022/08/02 07:00:25;;;;;;;0.08;0.08;;;17.30;99.90;;;;;;5026727;28;20050;-66
2022/08/02 07:02:51;;;;;;;0.03;0.03;;;17.40;99.90;;;;;;5042815;28;20122;-66
2022/08/02 07:05:16;;;;;;;0.15;0.15;;;17.40;99.90;;;;;;5046035;28;20037;-66
2022/08/02 07:07:42;;;;;;;0.47;0.32;;;17.50;99.90;;;;;;5032635;28;20044;-66
2022/08/02 07:10:08;;;;;;;0.00;0.00;;;17.60;99.90;;;;;;5046821;28;20082;-66
2022/08/02 07:12:34;;;;;;;3.42;0.80;;;17.70;99.90;;;;;;5044884;28;20546;-66
2022/08/02 07:15:02;;;;;;;0.00;0.00;;;17.70;99.90;;;;;;5035272;28;20048;-66
2022/08/02 07:17:28;;;;;;;0.03;0.03;;;17.80;99.90;;;;;;5037835;28;20067;-66
2022/08/02 07:19:55;;;;;;;0.00;0.00;;;17.90;99.90;;;;;;5048476;28;20548;-66
2022/08/02 07:22:22;;;;;;;0.00;0.00;;;17.90;99.90;;;;;;5050147;28;20033;-66
2022/08/02 07:24:48;;;;;;;0.00;0.00;;;18.00;99.90;;;;;;5040908;28;20048;-66
2022/08/02 07:27:13;;;;;;;0.00;0.00;;;18.10;99.90;;;;;;5049822;28;20044;-66
2022/08/02 07:29:40;;;;;;;0.10;0.10;;;18.20;99.90;;;;;;5036199;28;20057;-66
2022/08/02 07:32:06;;;;;;;0.20;0.20;;;18.30;99.90;;;;;;5037276;28;20045;-66
2022/08/02 07:34:31;;;;;;;0.00;0.00;;;18.40;99.90;;;;;;5049965;28;20076;-66
2022/08/02 07:36:57;;;;;;;0.08;0.08;;;18.50;99.90;;;;;;5045770;28;20048;-66
2022/08/02 07:39:23;;;;;;;0.00;0.00;;;18.60;99.90;;;;;;5035292;28;20049;-66
2022/08/02 07:41:50;;;;;;;0.00;0.00;;;18.60;99.90;;;;;;5045044;28;20053;-66
2022/08/02 07:44:20;;;;;;;0.00;0.00;;;18.70;99.90;;;;;;5048989;28;20441;-66
2022/08/02 07:46:46;;;;;;;0.00;0.00;;;18.80;99.90;;;;;;5047950;28;20056;-66
2022/08/02 07:49:17;;;;;;;0.45;0.45;;;18.90;99.90;;;;;;5041421;28;20042;-66
2022/08/02 07:51:45;;;;;;;0.20;0.20;;;18.90;99.90;;;;;;5036676;28;20094;-66
2022/08/02 07:54:11;;;;;;;0.03;0.03;;;19.00;99.90;;;;;;5042422;28;20079;-66
2022/08/02 07:56:37;;;;;;;0.20;0.20;;;19.10;99.90;;;;;;5043288;28;20044;-66
2022/08/02 07:59:03;;;;;;;0.00;0.00;;;19.10;99.90;;;;;;5031300;28;20120;-66
2022/08/02 08:01:30;;;;;;;0.10;0.10;;;19.20;99.90;;;;;;5049931;28;20522;-66
2022/08/02 08:03:56;;;;;;;0.00;0.00;;;19.20;99.90;;;;;;5042403;28;20168;-66
2022/08/02 08:06:21;;;;;;;0.00;0.00;;;19.20;99.90;;;;;;5045924;28;20060;-66
2022/08/02 08:08:47;;;;;;;0.10;0.10;;;19.20;99.90;;;;;;5048634;28;20045;-66
2022/08/02 08:11:13;;;;;;;0.10;0.10;;;19.30;99.90;;;;;;5040817;28;20037;-66
2022/08/02 08:13:38;;;;;;;0.00;0.00;;;19.40;99.90;;;;;;5034477;28;20045;-66
2022/08/02 08:16:05;;;;;;;0.00;0.00;;;19.50;99.90;;;;;;5044765;28;20041;-66
2022/08/02 08:18:30;;;;;;;0.00;0.00;;;19.60;99.90;;;;;;5041261;28;20065;-66
2022/08/02 08:20:56;;;;;;;0.10;0.10;;;19.70;99.90;;;;;;5042504;28;20052;-66
2022/08/02 08:23:22;;;;;;;0.28;0.28;;;19.80;99.90;;;;;;5044678;28;20132;-66
2022/08/02 08:25:48;;;;;;;0.00;0.00;;;19.90;99.90;;;;;;5044720;28;20148;-66
2022/08/02 08:28:13;;;;;;;0.05;0.05;;;20.00;99.90;;;;;;5035215;28;20573;-66
2022/08/02 08:30:40;;;;;;;0.10;0.10;;;20.10;99.90;;;;;;5046486;28;20098;-66
2022/08/02 08:33:06;;;;;;;0.70;0.45;;;20.20;99.90;;;;;;5037119;28;20068;-66
2022/08/02 08:35:32;;;;;;;0.00;0.00;;;20.20;99.90;;;;;;5036362;28;20464;-66
2022/08/02 08:37:57;;;;;;;0.10;0.10;;;20.30;99.90;;;;;;5048502;28;20048;-66
2022/08/02 08:40:24;;;;;;;0.00;0.00;;;20.30;99.90;;;;;;5034597;28;20041;-66
2022/08/02 08:42:50;;;;;;;0.85;0.35;;;20.40;99.90;;;;;;5037343;28;20052;-66
2022/08/02 08:45:16;;;;;;;0.10;0.10;;;20.50;99.90;;;;;;5038228;28;20431;-66
2022/08/02 08:47:42;;;;;;;1.05;0.98;;;20.50;99.90;;;;;;5034197;28;20099;-66
2022/08/02 08:50:18;;;;;;;0.10;0.10;;;20.60;99.90;;;;;;5033088;28;20129;-66
2022/08/02 08:53:05;;;;;;;0.68;0.68;;;20.70;99.90;;;;;;5036485;28;20056;-66
2022/08/02 08:55:34;;;;;;;4.53;0.30;;;20.80;99.90;;;;;;5034154;28;20408;-66
2022/08/02 08:58:01;;;;;;;0.25;0.25;;;20.90;99.90;;;;;;5031428;28;20044;-66
2022/08/02 09:00:29;;;;;;;0.05;0.05;;;21.00;99.90;;;;;;5034767;28;20717;-66
2022/08/02 09:02:55;;;;;;;0.20;0.20;;;21.00;99.90;;;;;;5045749;28;20047;-66
2022/08/02 09:05:21;;;;;;;0.20;0.15;;;21.00;99.90;;;;;;5036868;28;20044;-65
2022/08/02 09:07:49;;;;;;;0.30;0.30;;;21.00;99.90;;;;;;5046019;28;20045;-65
2022/08/02 09:10:30;;;;;;;0.25;0.25;;;21.10;99.90;;;;;;5048556;28;20049;-65
2022/08/02 09:13:11;;;;;;;0.38;0.38;;;21.10;99.90;;;;;;5042031;28;20045;-66
2022/08/02 09:15:38;;;;;;;0.10;0.10;;;21.20;99.90;;;;;;5042129;28;20556;-66
2022/08/02 09:18:04;;;;;;;0.00;0.00;;;21.20;99.90;;;;;;5047736;28;20094;-66
2022/08/02 09:20:32;;;;;;;1.85;0.90;;;21.30;99.90;;;;;;5041659;28;20029;-66
2022/08/02 09:23:09;;;;;;;0.22;0.22;;;21.40;99.90;;;;;;5031801;28;20667;-66
2022/08/02 09:25:35;;;;;;;0.10;0.10;;;21.50;99.90;;;;;;5036319;28;20041;-66
2022/08/02 09:28:05;;;;;;;0.00;0.00;;;21.70;99.90;;;;;;5042461;28;20048;-66
2022/08/02 09:30:31;;;;;;;0.15;0.15;;;21.90;99.90;;;;;;5045968;28;20041;-66
2022/08/02 09:32:57;;;;;;;0.30;0.30;;;21.90;99.90;;;;;;5048678;28;20583;-66
2022/08/02 09:35:33;;;;;;;0.32;0.32;;;22.00;99.90;;;;;;5036804;28;20098;-66
2022/08/02 09:38:13;;;;;;;0.00;0.00;;;22.20;99.90;;;;;;5045086;28;20041;-67
2022/08/02 09:40:40;;;;;;;0.22;0.22;;;22.30;99.90;;;;;;5034500;28;20076;-66
2022/08/02 09:43:07;;;;;;;0.75;0.45;;;22.40;99.90;;;;;;5041785;28;20180;-66
2022/08/02 09:45:34;;;;;;;0.10;0.10;;;22.40;99.90;;;;;;5034950;28;20049;-66
2022/08/02 09:48:07;;;;;;;0.20;0.20;;;22.50;99.90;;;;;;5046013;28;20116;-66
2022/08/02 09:50:34;;;;;;;0.03;0.03;;;22.50;99.90;;;;;;5048129;28;20128;-66
2022/08/02 09:53:01;;;;;;;0.47;0.47;;;22.50;99.90;;;;;;5032594;28;20048;-66
2022/08/02 09:55:27;;;;;;;0.55;0.40;;;22.40;99.90;;;;;;5035068;28;20037;-67
2022/08/02 09:57:53;;;;;;;0.20;0.10;;;22.40;99.90;;;;;;5040757;28;20049;-67
2022/08/02 10:00:19;;;;;;;0.00;0.00;;;22.70;99.90;;;;;;5033404;28;20064;-66
2022/08/02 10:03:04;;;;;;;0.25;0.25;;;22.90;99.90;;;;;;5031975;28;20052;-67
2022/08/02 10:05:30;;;;;;;0.47;0.40;;;23.30;99.90;;;;;;5031434;28;20045;-66
2022/08/02 10:07:56;;;;;;;0.20;0.20;;;23.60;99.90;;;;;;5048153;28;20052;-66
2022/08/02 10:10:22;;;;;;;0.30;0.30;;;23.80;99.90;;;;;;5040285;28;20397;-66
2022/08/02 10:12:48;;;;;;;0.03;0.03;;;24.00;99.90;;;;;;5038743;28;20133;-65
2022/08/02 10:15:15;;;;;;;0.75;0.57;;;23.90;99.90;;;;;;5046309;28;20076;-65
2022/08/02 10:17:43;;;;;;;0.10;0.10;;;23.90;99.90;;;;;;5043147;28;20045;-65
2022/08/02 10:20:09;;;;;;;0.25;0.25;;;24.10;99.90;;;;;;5031324;28;20068;-66
2022/08/02 10:22:37;;;;;;;1.58;0.45;;;24.20;99.90;;;;;;5044265;28;20171;-66
2022/08/02 10:25:04;;;;;;;0.40;0.40;;;24.10;99.90;;;;;;5044087;28;20091;-66
2022/08/02 10:27:31;;;;;;;0.43;0.43;;;23.90;99.90;;;;;;5035135;28;20046;-65
2022/08/02 10:29:59;;;;;;;0.43;0.40;;;23.80;99.90;;;;;;5033689;28;20112;-66
2022/08/02 10:32:41;;;;;;;0.25;0.25;;;23.80;99.90;;;;;;5045251;28;20507;-66
2022/08/02 10:35:13;;;;;;;0.88;0.80;;;23.70;99.90;;;;;;5039046;28;20080;-66
2022/08/02 10:37:40;;;;;;;0.47;0.47;;;23.70;99.90;;;;;;5047073;28;20133;-65
2022/08/02 10:40:21;;;;;;;0.20;0.20;;;23.70;99.90;;;;;;5047552;28;20041;-66
2022/08/02 10:42:49;;;;;;;0.28;0.25;;;23.70;99.90;;;;;;5044096;28;20562;-67
2022/08/02 10:45:17;;;;;;;0.82;0.82;;;23.70;99.90;;;;;;5036743;28;20580;-66
2022/08/02 10:48:02;;;;;;;0.55;0.30;;;23.70;99.90;;;;;;5044061;28;20049;-66
2022/08/02 10:50:46;;;;;;;2.40;0.73;;;23.70;99.90;;;;;;5035727;28;20064;-66
2022/08/02 10:54:06;;;;;;;0.13;0.13;;;23.50;99.90;;;;;;5039756;28;20152;-66
2022/08/02 10:56:49;;;;;;;0.25;0.25;;;23.40;99.90;;;;;;5036747;28;20446;-66
2022/08/02 10:59:35;;;;;;;0.43;0.40;;;23.30;99.90;;;;;;5036057;28;20698;-66
2022/08/02 11:02:03;;;;;;;0.10;0.10;;;23.20;99.90;;;;;;5049479;28;20056;-66
2022/08/02 11:04:35;;;;;;;0.55;0.52;;;23.20;99.90;;;;;;5046520;28;20033;-66
2022/08/02 11:07:17;;;;;;;1.45;0.63;;;23.30;99.90;;;;;;5041411;28;20776;-66
2022/08/02 11:09:49;;;;;;;0.30;0.30;;;23.30;99.90;;;;;;5040799;28;20504;-66
2022/08/02 11:12:19;;;;;;;0.50;0.40;;;23.40;99.90;;;;;;5041855;28;20151;-66
2022/08/02 11:14:58;;;;;;;0.35;0.35;;;23.50;99.90;;;;;;5049526;28;20049;-65
2022/08/02 11:17:24;;;;;;;0.50;0.50;;;23.60;99.90;;;;;;5043050;28;20091;-66
2022/08/02 11:20:10;;;;;;;6.07;0.85;;;23.50;99.90;;;;;;5040933;28;20596;-65
2022/08/02 11:22:36;;;;;;;0.65;0.65;;;23.40;99.90;;;;;;5046077;28;20052;-66
2022/08/02 11:25:21;;;;;;;0.10;0.10;;;23.30;99.90;;;;;;5045375;28;20116;-66
2022/08/02 11:27:50;;;;;;;2.25;1.88;;;23.30;99.90;;;;;;5047301;28;20037;-66
2022/08/02 11:30:16;;;;;;;0.73;0.73;;;23.20;99.90;;;;;;5046100;28;20454;-66
2022/08/02 11:32:42;;;;;;;0.52;0.52;;;23.00;99.90;;;;;;5036848;28;20101;-66
2022/08/02 11:35:08;;;;;;;0.20;0.20;;;22.90;99.90;;;;;;5050427;28;20057;-66
2022/08/02 11:37:36;;;;;;;8.93;1.75;;;22.90;99.90;;;;;;5050215;28;20045;-66
2022/08/02 11:40:11;;;;;;;0.52;0.20;;;22.70;99.90;;;;;;5036695;28;20079;-66
2022/08/02 11:42:39;;;;;;;0.57;0.57;;;22.80;99.90;;;;;;5045516;28;20548;-66
2022/08/02 11:45:07;;;;;;;0.70;0.70;;;22.70;99.90;;;;;;5046898;28;20033;-66
2022/08/02 11:47:43;;;;;;;0.00;0.00;;;22.80;99.90;;;;;;5058124;28;20072;-66
2022/08/02 11:50:09;;;;;;;0.20;0.20;;;22.70;99.90;;;;;;5036629;28;20140;-66
2022/08/02 11:52:36;;;;;;;0.10;0.10;;;22.70;99.90;;;;;;5049964;28;20048;-66
2022/08/02 11:55:03;;;;;;;0.10;0.10;;;22.70;99.90;;;;;;5045866;28;20049;-66
2022/08/02 11:57:29;;;;;;;0.57;0.15;;;22.60;99.90;;;;;;5036579;28;20063;-66
2022/08/02 11:59:55;;;;;;;0.68;0.50;;;22.60;99.90;;;;;;5046441;28;20496;-66
2022/08/02 12:02:34;;;;;;;0.55;0.55;;;22.60;99.90;;;;;;5047888;28;20288;-65
2022/08/02 12:05:07;;;;;;;0.52;0.52;;;22.50;99.90;;;;;;5043618;28;20041;-66
2022/08/02 12:07:37;;;;;;;1.65;0.47;;;22.50;99.90;;;;;;5046265;28;20048;-66
2022/08/02 12:10:11;;;;;;;0.00;0.00;;;22.50;99.90;;;;;;5040883;28;20037;-66
2022/08/02 12:12:57;;;;;;;0.30;0.30;;;22.40;99.90;;;;;;5043121;28;20073;-66
2022/08/02 12:15:41;;;;;;;0.20;0.20;;;22.40;99.90;;;;;;5040378;28;20115;-65
2022/08/02 12:20:54;;;;;;;0.10;0.10;;;22.40;99.90;;;;;;5037509;28;19921;-66
2022/08/02 12:23:20;;;;;;;0.10;0.10;;;22.40;99.90;;;;;;5033777;28;20489;-66
2022/08/02 12:25:57;;;;;;;0.73;0.70;;;22.40;99.90;;;;;;5038818;28;20044;-66
2022/08/02 12:28:24;;;;;;;0.82;0.65;;;22.30;99.90;;;;;;5043891;28;20049;-66
2022/08/02 12:30:58;;;;;;;0.28;0.28;;;22.40;99.90;;;;;;5046489;28;20037;-66
2022/08/02 12:33:43;;;;;;;0.10;0.10;;;22.40;99.90;;;;;;5038298;28;20049;-66
2022/08/02 12:36:29;;;;;;;0.55;0.55;;;22.40;99.90;;;;;;5047603;28;20694;-66
2022/08/02 12:38:55;;;;;;;0.38;0.35;;;22.50;99.90;;;;;;5043762;28;20045;-66
2022/08/02 12:41:21;;;;;;;0.43;0.30;;;22.50;99.90;;;;;;5042342;28;20048;-66
2022/08/02 12:43:49;;;;;;;0.20;0.20;;;22.60;99.90;;;;;;5047680;28;20041;-66
2022/08/02 12:46:17;;;;;;;1.50;1.33;;;22.70;99.90;;;;;;5031691;28;20484;-66
2022/08/02 12:48:43;;;;;;;0.40;0.40;;;22.70;99.90;;;;;;5034677;28;20385;-65
2022/08/02 12:51:21;;;;;;;1.88;1.05;;;22.80;99.90;;;;;;5036604;28;20045;-65
2022/08/02 12:53:47;;;;;;;6.32;0.45;;;22.90;99.90;;;;;;5044650;28;20048;-65
2022/08/02 12:56:26;;;;;;;0.47;0.40;;;22.90;99.90;;;;;;5046212;28;20045;-66
2022/08/02 12:58:51;;;;;;;0.32;0.30;;;23.10;99.90;;;;;;5034871;28;20056;-65
2022/08/02 13:01:25;;;;;;;2.22;1.40;;;23.10;99.90;;;;;;5037641;28;20053;-65
2022/08/02 13:03:52;;;;;;;1.13;0.95;;;23.30;99.90;;;;;;5044366;28;20111;-65